createdAt,value
2019-03-08T00:01:40.823Z,1.73
2019-03-08T00:04:11.753Z,1.77
2019-03-08T00:06:42.364Z,2.63
2019-03-08T00:09:13.025Z,3.27
2019-03-08T00:11:43.629Z,2.70
2019-03-08T00:14:14.325Z,1.50
2019-03-08T00:16:45.202Z,2.03
2019-03-08T00:19:16.895Z,2.70
2019-03-08T00:21:47.502Z,1.63
2019-03-08T00:24:18.157Z,4.60
2019-03-08T00:26:48.774Z,5.27
2019-03-08T00:29:19.765Z,2.57
2019-03-08T00:31:50.393Z,2.20
2019-03-08T00:34:20.993Z,7.17
2019-03-08T00:36:51.608Z,2.27
2019-03-08T00:39:22.300Z,1.73
2019-03-08T00:41:53.298Z,3.80
2019-03-08T00:44:23.902Z,2.73
2019-03-08T00:46:54.609Z,4.10
2019-03-08T00:49:25.221Z,1.30
2019-03-08T00:51:55.850Z,3.20
2019-03-08T00:54:26.458Z,1.60
2019-03-08T00:56:57.081Z,3.77
2019-03-08T00:59:27.687Z,2.80
2019-03-08T01:01:58.308Z,5.30
2019-03-08T01:04:28.993Z,3.03
2019-03-08T01:06:59.714Z,4.27
2019-03-08T01:09:30.405Z,2.70
2019-03-08T01:12:01.039Z,2.43
2019-03-08T01:14:31.646Z,5.00
2019-03-08T01:17:02.273Z,1.60
2019-03-08T01:19:32.966Z,5.53
2019-03-08T01:22:03.680Z,2.83
2019-03-08T01:24:34.293Z,2.10
2019-03-08T01:27:05.089Z,5.30
2019-03-08T01:29:35.706Z,1.37
2019-03-08T01:32:06.329Z,3.80
2019-03-08T01:34:36.926Z,3.37
2019-03-08T01:37:07.639Z,0.90
2019-03-08T01:39:39.390Z,1.20
2019-03-08T01:42:10.097Z,2.43
2019-03-08T01:44:40.808Z,3.00
2019-03-08T01:47:11.505Z,2.43
2019-03-08T01:49:42.113Z,2.70
2019-03-08T01:52:12.729Z,1.40
2019-03-08T01:54:43.340Z,5.10
2019-03-08T01:57:13.982Z,1.70
2019-03-08T01:59:44.594Z,2.80
2019-03-08T02:02:15.216Z,1.93
2019-03-08T02:04:45.901Z,1.27
2019-03-08T02:07:16.621Z,1.40
2019-03-08T02:09:47.221Z,2.40
2019-03-08T02:12:17.910Z,0.80
2019-03-08T02:14:48.501Z,2.07
2019-03-08T02:17:19.128Z,7.67
2019-03-08T02:19:50.105Z,1.53
2019-03-08T02:22:20.805Z,2.47
2019-03-08T02:24:51.498Z,4.70
2019-03-08T02:27:22.125Z,1.63
2019-03-08T02:29:52.734Z,0.80
2019-03-08T02:32:23.361Z,1.50
2019-03-08T02:34:54.109Z,2.60
2019-03-08T02:37:24.802Z,0.87
2019-03-08T02:39:55.412Z,1.00
2019-03-08T02:42:26.022Z,0.90
2019-03-08T02:44:56.622Z,1.67
2019-03-08T02:47:27.314Z,4.80
2019-03-08T02:49:57.994Z,1.00
2019-03-08T02:52:28.680Z,0.53
2019-03-08T02:54:59.345Z,0.83
2019-03-08T02:57:30.053Z,1.33
2019-03-08T03:00:00.666Z,2.20
2019-03-08T03:02:32.662Z,0.70
2019-03-08T03:05:03.334Z,0.90
2019-03-08T03:07:34.102Z,3.03
2019-03-08T03:10:04.937Z,0.60
2019-03-08T03:12:35.555Z,0.50
2019-03-08T03:15:07.019Z,0.60
2019-03-08T03:17:37.644Z,0.57
2019-03-08T03:20:08.570Z,1.33
2019-03-08T03:22:39.262Z,0.60
2019-03-08T03:25:10.472Z,0.73
2019-03-08T03:27:41.092Z,0.50
2019-03-08T03:30:13.145Z,1.27
2019-03-08T03:32:45.024Z,1.83
2019-03-08T03:35:15.621Z,0.90
2019-03-08T03:37:46.245Z,0.70
2019-03-08T03:40:16.876Z,0.87
2019-03-08T03:42:47.497Z,0.80
2019-03-08T03:45:19.233Z,3.23
2019-03-08T03:47:49.930Z,1.47
2019-03-08T03:50:20.610Z,2.17
2019-03-08T03:52:51.317Z,0.90
2019-03-08T03:55:21.975Z,1.20
2019-03-08T03:57:52.586Z,1.00
2019-03-08T04:00:23.770Z,1.90
2019-03-08T04:02:54.398Z,3.03
2019-03-08T04:05:24.999Z,0.80
2019-03-08T04:07:55.630Z,1.20
2019-03-08T04:10:26.227Z,1.70
2019-03-08T04:12:56.861Z,0.60
2019-03-08T04:15:27.529Z,0.80
2019-03-08T04:17:58.229Z,0.80
2019-03-08T04:20:28.833Z,0.97
2019-03-08T04:22:59.520Z,0.60
2019-03-08T04:25:30.141Z,4.50
2019-03-08T04:28:00.762Z,1.37
2019-03-08T04:30:31.383Z,1.03
2019-03-08T04:33:01.990Z,1.33
2019-03-08T04:35:32.676Z,1.10
2019-03-08T04:38:03.345Z,0.80
2019-03-08T04:40:34.050Z,1.27
2019-03-08T04:43:04.664Z,1.63
2019-03-08T04:45:35.281Z,1.70
2019-03-08T04:48:05.876Z,0.90
2019-03-08T04:50:36.505Z,1.47
2019-03-08T04:53:07.112Z,0.50
2019-03-08T04:55:37.733Z,2.30
2019-03-08T04:58:08.344Z,0.97
2019-03-08T05:00:39.035Z,1.70
2019-03-08T05:03:09.625Z,1.33
2019-03-08T05:05:40.241Z,0.40
2019-03-08T05:08:10.835Z,0.87
2019-03-08T05:10:41.463Z,1.33
2019-03-08T05:13:12.057Z,0.50
2019-03-08T05:15:42.681Z,1.07
2019-03-08T05:18:13.280Z,1.40
2019-03-08T05:20:43.990Z,1.90
2019-03-08T05:23:14.602Z,1.27
2019-03-08T05:25:45.234Z,1.67
2019-03-08T05:28:15.839Z,2.00
2019-03-08T05:30:46.461Z,0.50
2019-03-08T05:33:17.369Z,0.53
2019-03-08T05:35:48.059Z,0.90
2019-03-08T05:38:18.735Z,1.57
2019-03-08T05:40:49.353Z,0.60
2019-03-08T05:43:19.955Z,2.03
2019-03-08T05:45:50.950Z,3.30
2019-03-08T05:48:21.553Z,0.70
2019-03-08T05:50:52.174Z,3.47
2019-03-08T05:53:22.852Z,0.70
2019-03-08T05:55:53.465Z,0.70
2019-03-08T05:58:24.137Z,5.07
2019-03-08T06:00:54.851Z,1.00
2019-03-08T06:03:25.529Z,1.30
2019-03-08T06:05:56.151Z,1.37
2019-03-08T06:08:26.761Z,1.73
2019-03-08T06:10:57.485Z,1.37
2019-03-08T06:13:28.079Z,2.87
2019-03-08T06:15:58.680Z,1.00
2019-03-08T06:18:29.369Z,1.03
2019-03-08T06:20:59.986Z,1.97
2019-03-08T06:23:30.589Z,2.23
2019-03-08T06:26:01.443Z,1.77
2019-03-08T06:28:32.038Z,0.70
2019-03-08T06:31:02.651Z,2.17
2019-03-08T06:33:33.254Z,2.63
2019-03-08T06:36:03.897Z,3.00
2019-03-08T06:38:34.493Z,2.63
2019-03-08T06:41:05.117Z,1.70
2019-03-08T06:43:35.718Z,1.87
2019-03-08T06:46:06.338Z,2.20
2019-03-08T06:48:36.939Z,0.97
2019-03-08T06:51:08.538Z,2.10
2019-03-08T06:53:39.145Z,1.00
2019-03-08T06:56:09.774Z,2.50
2019-03-08T06:58:49.311Z,1.03
2019-03-08T07:01:26.228Z,0.90
2019-03-08T07:03:56.833Z,1.30
2019-03-08T07:06:27.483Z,0.97
2019-03-08T07:08:58.111Z,1.20
2019-03-08T07:11:28.828Z,1.27
2019-03-08T07:13:59.421Z,1.47
2019-03-08T07:16:30.254Z,3.30
2019-03-08T07:19:00.863Z,2.80
2019-03-08T07:21:36.682Z,1.40
2019-03-08T07:24:26.321Z,1.10
2019-03-08T07:27:24.982Z,2.10
2019-03-08T07:30:14.920Z,0.90
2019-03-08T07:33:01.032Z,1.93
2019-03-08T07:35:50.894Z,2.10
2019-03-08T07:38:37.993Z,1.60
2019-03-08T07:41:18.193Z,6.33
2019-03-08T07:43:57.397Z,3.00
2019-03-08T07:46:45.881Z,2.40
2019-03-08T07:49:34.182Z,1.20
2019-03-08T07:52:35.902Z,1.50
2019-03-08T07:55:24.633Z,3.60
2019-03-08T07:58:13.173Z,1.40
2019-03-08T08:01:17.985Z,0.97
2019-03-08T08:03:57.957Z,4.27
2019-03-08T08:06:56.654Z,0.90
2019-03-08T08:09:46.318Z,3.20
2019-03-08T08:12:36.066Z,0.93
2019-03-08T08:15:30.994Z,2.63
2019-03-08T08:18:20.673Z,4.03
2019-03-08T08:21:04.717Z,1.23
2019-03-08T08:23:48.435Z,3.40
2019-03-08T08:26:37.170Z,4.10
2019-03-08T08:29:36.189Z,1.70
2019-03-08T08:32:17.289Z,3.37
2019-03-08T08:35:06.965Z,3.07
2019-03-08T08:37:57.890Z,4.67
2019-03-08T08:40:46.390Z,2.17
2019-03-08T08:43:35.034Z,3.03
2019-03-08T08:46:16.049Z,4.30
2019-03-08T08:49:03.385Z,2.10
2019-03-08T08:51:56.286Z,2.60
2019-03-08T08:54:44.693Z,4.90
2019-03-08T08:57:24.511Z,4.03
2019-03-08T09:00:07.241Z,5.00
2019-03-08T09:02:50.170Z,4.03
2019-03-08T09:05:41.670Z,4.20
2019-03-08T09:08:23.892Z,4.53
2019-03-08T09:11:12.733Z,5.87
2019-03-08T09:14:01.178Z,3.47
2019-03-08T09:16:50.856Z,2.27
2019-03-08T09:19:43.497Z,5.50
2019-03-08T09:22:39.190Z,2.93
2019-03-08T09:25:18.677Z,4.43
2019-03-08T09:28:11.613Z,2.03
2019-03-08T09:31:01.285Z,3.13
2019-03-08T09:33:53.756Z,5.13
2019-03-08T09:36:42.073Z,4.30
2019-03-08T09:39:30.805Z,5.50
2019-03-08T09:42:38.578Z,2.70
2019-03-08T09:45:27.402Z,2.80
2019-03-08T09:48:05.493Z,9.33
2019-03-08T09:50:51.812Z,4.67
2019-03-08T09:53:38.244Z,5.17
2019-03-08T09:56:34.552Z,3.23
2019-03-08T09:59:42.297Z,4.73
2019-03-08T10:02:31.961Z,5.43
2019-03-08T10:05:13.821Z,4.20
2019-03-08T10:08:12.606Z,2.57
2019-03-08T10:11:00.033Z,6.23
2019-03-08T10:13:40.079Z,2.37
2019-03-08T10:16:22.081Z,2.80
2019-03-08T10:19:04.290Z,3.23
2019-03-08T10:21:57.238Z,2.50
2019-03-08T10:24:38.113Z,4.17
2019-03-08T10:27:38.103Z,3.30
2019-03-08T10:30:33.891Z,3.23
2019-03-08T10:33:23.554Z,1.90
2019-03-08T10:36:13.247Z,2.63
2019-03-08T10:38:49.961Z,2.40
2019-03-08T10:41:45.497Z,2.80
2019-03-08T10:44:30.337Z,2.30
2019-03-08T10:47:26.090Z,2.10
2019-03-08T10:50:11.597Z,2.33
2019-03-08T10:53:04.101Z,1.50
2019-03-08T10:55:51.117Z,1.87
2019-03-08T10:58:44.565Z,1.80
2019-03-08T11:01:34.260Z,1.93
2019-03-08T11:04:21.757Z,4.50
2019-03-08T11:06:57.357Z,7.23
2019-03-08T11:10:05.137Z,2.73
2019-03-08T11:12:42.108Z,4.03
2019-03-08T11:15:31.041Z,3.13
2019-03-08T11:18:19.257Z,1.43
2019-03-08T11:21:15.074Z,4.30
2019-03-08T11:24:19.920Z,2.83
2019-03-08T11:27:21.684Z,2.57
2019-03-08T11:30:14.293Z,3.57
2019-03-08T11:32:49.693Z,2.23
2019-03-08T11:35:32.031Z,4.00
2019-03-08T11:38:20.334Z,2.10
2019-03-08T11:41:21.981Z,1.13
2019-03-08T11:44:10.272Z,1.43
2019-03-08T11:47:00.004Z,2.90
2019-03-08T11:50:08.281Z,3.83
2019-03-08T11:52:48.197Z,2.23
2019-03-08T11:55:37.891Z,3.23
2019-03-08T11:58:28.639Z,2.20
2019-03-08T12:01:16.517Z,3.40
2019-03-08T12:04:05.161Z,4.73
2019-03-08T12:06:48.401Z,1.40
2019-03-08T12:09:41.097Z,1.87
2019-03-08T12:12:29.683Z,2.90
2019-03-08T12:15:22.153Z,1.43
2019-03-08T12:18:23.758Z,3.80
2019-03-08T12:21:22.698Z,1.50
2019-03-08T12:24:15.941Z,3.03
2019-03-08T12:27:14.757Z,1.47
2019-03-08T12:30:04.308Z,4.27
2019-03-08T12:32:43.553Z,3.23
2019-03-08T12:35:31.373Z,2.87
2019-03-08T12:38:36.423Z,2.57
2019-03-08T12:41:25.185Z,5.33
2019-03-08T12:44:30.057Z,5.40
2019-03-08T12:47:14.924Z,2.43
2019-03-08T12:50:10.481Z,1.83
2019-03-08T12:53:06.521Z,1.93
2019-03-08T12:55:47.983Z,3.63
2019-03-08T12:58:26.934Z,3.40
2019-03-08T13:01:15.567Z,3.57
2019-03-08T13:04:17.311Z,2.97
2019-03-08T13:06:59.240Z,2.20
2019-03-08T13:09:47.013Z,1.50
2019-03-08T13:12:19.163Z,1.20
2019-03-08T13:14:49.890Z,5.97
2019-03-08T13:17:20.829Z,2.17
2019-03-08T13:19:51.450Z,5.00
2019-03-08T13:22:22.106Z,1.30
2019-03-08T13:24:52.853Z,2.83
2019-03-08T13:27:23.512Z,4.20
2019-03-08T13:29:54.552Z,1.83
2019-03-08T13:32:25.276Z,1.80
2019-03-08T13:34:55.896Z,2.20
2019-03-08T13:37:26.538Z,1.87
2019-03-08T13:39:57.168Z,1.80
2019-03-08T13:42:28.104Z,3.10
2019-03-08T13:44:58.726Z,1.87
2019-03-08T13:47:29.386Z,1.20
2019-03-08T13:50:00.018Z,2.87
2019-03-08T13:52:30.773Z,1.87
2019-03-08T13:55:01.494Z,1.47
2019-03-08T13:57:32.150Z,5.93
2019-03-08T14:00:02.784Z,3.80
2019-03-08T14:02:33.578Z,2.60
2019-03-08T14:05:04.436Z,3.30
2019-03-08T14:36:56.089Z,4.83
2019-03-08T14:39:26.793Z,9.67
2019-03-08T19:16:19.741Z,18.53
2019-03-08T19:19:05.099Z,7.33
2019-03-08T19:21:45.044Z,12.43
2019-03-08T19:30:37.388Z,8.43
2019-03-08T19:33:19.213Z,9.03
2019-03-08T19:35:55.961Z,9.60
2019-03-08T19:38:54.855Z,9.07
2019-03-08T19:42:02.699Z,10.13
2019-03-08T19:44:52.390Z,12.53
2019-03-08T19:47:44.750Z,10.37
2019-03-08T19:50:30.556Z,10.20
2019-03-08T19:53:11.051Z,26.60
2019-03-08T19:56:01.149Z,22.50
2019-03-08T19:58:49.113Z,11.23
2019-03-08T20:01:35.331Z,9.70
2019-03-08T20:04:31.220Z,8.60
2019-03-08T20:07:15.330Z,8.60
2019-03-08T20:10:06.082Z,13.40
2019-03-08T20:12:50.332Z,6.40
2019-03-08T20:15:49.354Z,10.00
2019-03-08T20:18:44.919Z,8.60
2019-03-08T20:21:26.662Z,12.57
2019-03-08T20:24:05.197Z,10.83
2019-03-08T20:26:58.034Z,11.87
2019-03-08T20:29:38.060Z,11.10
2019-03-08T20:32:34.164Z,14.47
2019-03-08T20:35:30.098Z,12.13
2019-03-08T20:38:31.788Z,12.33
2019-03-08T20:41:30.707Z,11.50
2019-03-08T20:44:10.654Z,13.20
2019-03-08T20:46:54.145Z,12.40
2019-03-08T20:49:24.747Z,12.50
2019-03-08T20:51:55.427Z,18.33
2019-03-08T20:54:26.097Z,17.73
2019-03-08T20:56:56.669Z,10.47
2019-03-08T20:59:27.400Z,9.27
2019-03-08T21:01:59.150Z,12.63
2019-03-08T21:04:29.877Z,10.80
2019-03-08T21:07:00.533Z,11.47
2019-03-08T21:09:31.149Z,11.50
2019-03-08T21:12:01.888Z,16.20
2019-03-08T21:14:32.525Z,12.10
2019-03-08T21:17:03.126Z,15.83
2019-03-08T21:19:33.876Z,9.90
2019-03-08T21:22:04.548Z,12.83
2019-03-08T21:24:35.182Z,14.10
2019-03-08T21:27:05.925Z,14.20
2019-03-08T21:29:36.596Z,16.20
2019-03-08T21:32:07.557Z,12.43
2019-03-08T21:34:38.876Z,25.77
2019-03-08T21:37:09.486Z,11.47
2019-03-08T21:39:40.239Z,10.30
2019-03-08T21:42:10.923Z,8.00
2019-03-08T21:44:41.580Z,5.00
2019-03-08T21:47:12.224Z,6.97
2019-03-08T21:49:42.968Z,20.23
2019-03-08T21:52:13.618Z,14.73
2019-03-08T21:54:44.673Z,4.80
2019-03-08T21:57:15.395Z,6.10
2019-03-08T21:59:46.082Z,7.63
2019-03-08T22:02:16.800Z,7.10
2019-03-08T22:04:57.088Z,5.07
2019-03-08T22:07:27.742Z,10.30
2019-03-08T22:10:09.982Z,7.10
2019-03-08T22:12:40.669Z,4.20
2019-03-08T22:15:12.665Z,7.37
2019-03-08T22:17:43.285Z,9.70
2019-03-08T22:20:14.021Z,5.43
2019-03-08T22:22:44.627Z,2.77
2019-03-08T22:25:15.285Z,4.87
2019-03-08T22:27:45.905Z,7.10
2019-03-08T22:30:16.961Z,11.20
2019-03-08T22:32:48.027Z,5.43
2019-03-08T22:35:18.839Z,8.17
2019-03-08T22:37:49.441Z,5.13
2019-03-08T22:40:20.148Z,3.27
2019-03-08T22:42:50.762Z,5.20
2019-03-08T22:45:21.456Z,5.83
2019-03-08T22:47:52.064Z,5.10
2019-03-08T22:50:22.991Z,4.90
2019-03-08T22:52:53.673Z,7.60
2019-03-08T22:55:24.299Z,6.17
2019-03-08T22:57:54.905Z,4.97
2019-03-08T23:01:00.128Z,4.57
2019-03-08T23:03:32.542Z,3.30
2019-03-08T23:06:03.261Z,6.43
2019-03-08T23:08:34.241Z,5.53
2019-03-08T23:11:04.987Z,6.57
2019-03-08T23:13:35.669Z,7.27
2019-03-08T23:16:06.368Z,2.90
2019-03-08T23:18:36.895Z,4.43
2019-03-08T23:21:07.596Z,4.87
2019-03-08T23:23:38.138Z,9.27
2019-03-08T23:26:09.856Z,5.27
2019-03-08T23:28:59.430Z,7.13
2019-03-08T23:31:43.993Z,3.73
2019-03-08T23:34:14.598Z,6.63
2019-03-08T23:36:45.245Z,7.67
2019-03-08T23:39:15.852Z,4.43
2019-03-08T23:41:46.492Z,4.77
2019-03-08T23:44:17.103Z,7.57
2019-03-08T23:46:48.789Z,10.00
2019-03-08T23:49:20.565Z,7.17
2019-03-08T23:51:51.197Z,4.20
2019-03-08T23:54:21.801Z,6.40
2019-03-08T23:56:52.426Z,9.97
2019-03-08T23:59:23.033Z,2.90
